Time,TemperatureF,DewpointF,PressureIn,WindDirection,WindDirectionDegrees,WindSpeedMPH,WindSpeedGustMPH,Humidity,HourlyPrecipIn,Conditions,Clouds,dailyrainin,SolarRadiationWatts/m^2,SoftwareType,DateUTC
2016-12-02 00:03:00,35.0,29.0,30.03,West,279,0.0,0.0,78,-99.99,,,-99.99,0.000000,,2016-12-02 05:03:00,
2016-12-02 00:13:00,34.0,28.0,30.03,West,279,0.0,0.0,80,-99.99,,,-99.99,0.000000,,2016-12-02 05:13:00,
2016-12-02 00:23:00,33.0,28.0,30.03,West,279,0.0,0.0,81,-99.99,,,-99.99,0.000000,,2016-12-02 05:23:00,
2016-12-02 00:33:00,33.0,28.0,30.03,West,279,0.0,0.0,83,-99.99,,,-99.99,0.000000,,2016-12-02 05:33:00,
2016-12-02 00:43:00,32.0,28.0,30.03,West,276,0.0,2.0,84,-99.99,,,-99.99,0.000000,,2016-12-02 05:43:00,
2016-12-02 00:55:00,32.0,28.0,30.03,West,260,0.0,2.0,85,-99.99,,,-99.99,0.000000,,2016-12-02 05:55:00,
2016-12-02 01:05:00,33.0,29.0,30.03,WSW,246,0.0,0.0,84,-99.99,,,-99.99,0.000000,,2016-12-02 06:05:00,
2016-12-02 01:15:00,33.0,29.0,30.03,SW,219,0.0,1.0,84,-99.99,,,-99.99,0.000000,,2016-12-02 06:15:00,
2016-12-02 01:26:00,34.0,30.0,30.03,SSW,200,0.0,0.0,84,-99.99,,,-99.99,0.000000,,2016-12-02 06:26:00,
2016-12-02 01:36:00,34.0,29.0,30.03,SSW,201,0.0,0.0,83,-99.99,,,-99.99,0.000000,,2016-12-02 06:36:00,
2016-12-02 01:48:00,34.0,29.0,30.03,SW,227,1.0,3.0,83,-99.99,,,-99.99,0.000000,,2016-12-02 06:48:00,
2016-12-02 01:55:00,34.0,29.0,30.04,SW,219,1.0,5.0,83,-99.99,,,-99.99,0.000000,,2016-12-02 06:55:00,
2016-12-02 02:05:00,35.0,30.0,30.04,SSW,207,0.0,2.0,83,-99.99,,,-99.99,0.000000,,2016-12-02 07:05:00,
2016-12-02 02:15:00,35.0,30.0,30.05,SW,220,0.0,1.0,83,-99.99,,,-99.99,0.000000,,2016-12-02 07:15:00,
2016-12-02 02:25:00,35.0,30.0,30.05,WSW,253,0.0,0.0,82,-99.99,,,-99.99,0.000000,,2016-12-02 07:25:00,
2016-12-02 02:35:00,35.0,30.0,30.05,South,189,0.0,0.0,82,-99.99,,,-99.99,0.000000,,2016-12-02 07:35:00,
2016-12-02 03:05:00,36.0,31.0,30.06,SSW,213,0.0,0.0,82,-99.99,,,-99.99,0.000000,,2016-12-02 08:05:00,
2016-12-02 03:14:00,36.0,31.0,30.06,SW,222,0.0,0.0,81,-99.99,,,-99.99,,,2016-12-02 08:14:00,
2016-12-02 03:26:00,36.0,31.0,30.06,WNW,295,0.0,2.0,81,-99.99,,,-99.99,0.000000,,2016-12-02 08:26:00,
2016-12-02 03:36:00,36.0,31.0,30.06,WNW,283,0.0,2.0,81,-99.99,,,-99.99,0.000000,,2016-12-02 08:36:00,
2016-12-02 03:47:00,36.0,31.0,30.06,West,274,0.0,2.0,81,-99.99,,,-99.99,0.000000,,2016-12-02 08:47:00,
2016-12-02 03:57:00,36.0,30.0,30.06,West,276,1.0,4.0,80,-99.99,,,-99.99,0.000000,,2016-12-02 08:57:00,
2016-12-02 04:06:00,36.0,30.0,30.06,West,277,0.0,2.0,80,-99.99,,,-99.99,0.000000,,2016-12-02 09:06:00,
2016-12-02 04:16:00,36.0,30.0,30.06,WSW,251,0.0,4.0,80,-99.99,,,-99.99,0.000000,,2016-12-02 09:16:00,
2016-12-02 04:23:00,36.0,31.0,30.06,WSW,253,0.0,2.0,81,-99.99,,,-99.99,0.000000,,2016-12-02 09:23:00,
2016-12-02 04:34:00,36.0,31.0,30.07,SSW,197,1.0,3.0,82,-99.99,,,-99.99,0.000000,,2016-12-02 09:34:00,
2016-12-02 04:45:00,36.0,31.0,30.07,SSW,196,0.0,-999.0,82,-99.99,,,-99.99,,,2016-12-02 09:45:00,
2016-12-02 05:03:00,36.0,31.0,30.08,SSW,196,0.0,1.0,83,-99.99,,,-99.99,0.000000,,2016-12-02 10:03:00,
2016-12-02 05:13:00,36.0,31.0,30.08,SSW,202,1.0,4.0,83,-99.99,,,-99.99,0.000000,,2016-12-02 10:13:00,
2016-12-02 05:23:00,35.0,30.0,30.08,SSW,209,1.0,4.0,83,-99.99,,,-99.99,0.000000,,2016-12-02 10:23:00,
2016-12-02 05:33:00,35.0,31.0,30.09,SSW,205,1.0,3.0,84,-99.99,,,-99.99,0.000000,,2016-12-02 10:33:00,
2016-12-02 05:44:00,35.0,31.0,30.09,SSW,197,1.0,3.0,84,-99.99,,,-99.99,0.000000,,2016-12-02 10:44:00,
2016-12-02 05:53:00,35.0,31.0,30.09,SSW,196,0.0,2.0,84,-99.99,,,-99.99,0.000000,,2016-12-02 10:53:00,
2016-12-02 06:03:00,35.0,31.0,30.09,WSW,238,0.0,4.0,84,-99.99,,,-99.99,0.000000,,2016-12-02 11:03:00,
2016-12-02 06:13:00,35.0,31.0,30.09,WSW,240,0.0,4.0,84,-99.99,,,-99.99,0.000000,,2016-12-02 11:13:00,
2016-12-02 06:23:00,35.0,30.0,30.10,SSW,213,0.0,4.0,83,-99.99,,,-99.99,0.000000,,2016-12-02 11:23:00,
2016-12-02 06:34:00,35.0,31.0,30.10,SW,229,1.0,5.0,84,-99.99,,,-99.99,0.000000,,2016-12-02 11:34:00,
2016-12-02 06:43:00,35.0,30.0,30.10,West,273,1.0,3.0,83,-99.99,,,-99.99,0.000000,,2016-12-02 11:43:00,
2016-12-02 06:56:00,35.0,30.0,30.10,West,264,0.0,5.0,83,-99.99,,,-99.99,0.000000,,2016-12-02 11:56:00,
2016-12-02 07:05:00,35.0,30.0,30.11,West,263,1.0,4.0,83,-99.99,,,-99.99,0.000000,,2016-12-02 12:05:00,
2016-12-02 07:15:00,35.0,30.0,30.11,West,266,0.0,5.0,83,-99.99,,,-99.99,0.000000,,2016-12-02 12:15:00,
2016-12-02 07:26:00,35.0,30.0,30.11,SW,234,0.0,2.0,83,-99.99,,,-99.99,0.000000,,2016-12-02 12:26:00,
2016-12-02 07:37:00,35.0,30.0,30.12,West,268,1.0,4.0,83,-99.99,,,-99.99,0.000000,,2016-12-02 12:37:00,
2016-12-02 07:48:00,35.0,30.0,30.12,SW,228,0.0,3.0,83,-99.99,,,-99.99,0.000000,,2016-12-02 12:48:00,
2016-12-02 07:55:00,35.0,31.0,30.12,WSW,254,0.0,3.0,84,-99.99,,,-99.99,0.000000,,2016-12-02 12:55:00,
2016-12-02 08:06:00,35.0,30.0,30.12,NW,305,0.0,4.0,83,-99.99,,,-99.99,0.000000,,2016-12-02 13:06:00,
2016-12-02 08:17:00,35.0,31.0,30.12,WSW,248,1.0,7.0,84,-99.99,,,-99.99,0.000000,,2016-12-02 13:17:00,
2016-12-02 08:25:00,35.0,31.0,30.13,West,265,1.0,4.0,84,-99.99,,,-99.99,5.000000,,2016-12-02 13:25:00,
2016-12-02 08:35:00,35.0,31.0,30.13,West,261,1.0,5.0,84,-99.99,,,-99.99,7.000000,,2016-12-02 13:35:00,
2016-12-02 08:46:00,35.0,31.0,30.14,SSW,205,0.0,4.0,84,-99.99,,,-99.99,11.000000,,2016-12-02 13:46:00,
2016-12-02 08:57:00,35.0,31.0,30.14,WNW,282,0.0,7.0,84,-99.99,,,-99.99,14.000000,,2016-12-02 13:57:00,
2016-12-02 09:05:00,35.0,31.0,30.14,West,264,2.0,4.0,84,-99.99,,,-99.99,16.000000,,2016-12-02 14:05:00,
2016-12-02 09:15:00,35.0,30.0,30.14,WSW,242,1.0,7.0,83,-99.99,,,-99.99,19.000000,,2016-12-02 14:15:00,
2016-12-02 09:25:00,35.0,30.0,30.14,West,274,2.0,7.0,83,-99.99,,,-99.99,25.000000,,2016-12-02 14:25:00,
2016-12-02 09:36:00,35.0,30.0,30.15,West,272,1.0,6.0,83,-99.99,,,-99.99,30.000000,,2016-12-02 14:36:00,
2016-12-02 09:47:00,35.0,30.0,30.15,West,277,2.0,4.0,83,-99.99,,,-99.99,39.000000,,2016-12-02 14:47:00,
2016-12-02 09:56:00,36.0,31.0,30.15,WNW,300,1.0,5.0,83,-99.99,,,-99.99,37.000000,,2016-12-02 14:56:00,
2016-12-02 10:06:00,36.0,31.0,30.15,West,265,1.0,7.0,83,-99.99,,,-99.99,44.000000,,2016-12-02 15:06:00,
2016-12-02 10:15:00,36.0,31.0,30.15,West,272,1.0,7.0,83,-99.99,,,-99.99,49.000000,,2016-12-02 15:15:00,
2016-12-02 10:23:00,36.0,31.0,30.16,West,271,2.0,6.0,83,-99.99,,,-99.99,47.000000,,2016-12-02 15:23:00,
2016-12-02 10:35:00,36.0,31.0,30.16,West,267,1.0,-999.0,82,-99.99,,,-99.99,49.000000,,2016-12-02 15:35:00,
2016-12-02 10:43:00,36.0,31.0,30.16,WSW,246,1.0,4.0,82,-99.99,,,-99.99,51.000000,,2016-12-02 15:43:00,
2016-12-02 11:03:00,36.0,31.0,30.17,SW,232,2.0,7.0,81,-99.99,,,-99.99,77.000000,,2016-12-02 16:03:00,
2016-12-02 11:13:00,37.0,31.0,30.18,West,268,2.0,4.0,80,-99.99,,,-99.99,107.000000,,2016-12-02 16:13:00,
2016-12-02 11:23:00,37.0,31.0,30.18,South,186,1.0,5.0,80,-99.99,,,-99.99,105.000000,,2016-12-02 16:23:00,
2016-12-02 11:34:00,37.0,31.0,30.18,South,176,2.0,4.0,79,-99.99,,,-99.99,111.000000,,2016-12-02 16:34:00,
2016-12-02 11:44:00,38.0,32.0,30.18,WSW,238,2.0,7.0,79,-99.99,,,-99.99,127.000000,,2016-12-02 16:44:00,
2016-12-02 12:04:00,38.0,32.0,30.18,South,175,3.0,6.0,78,-99.99,,,-99.99,127.000000,,2016-12-02 17:04:00,
2016-12-02 12:13:00,38.0,32.0,30.18,SSW,204,5.0,8.0,78,-99.99,,,-99.99,125.000000,,2016-12-02 17:13:00,
2016-12-02 12:23:00,37.0,31.0,30.18,South,190,4.0,8.0,80,-99.99,,,-99.99,114.000000,,2016-12-02 17:23:00,
2016-12-02 12:33:00,37.0,31.0,30.17,SW,235,4.0,9.0,80,-99.99,,,-99.99,98.000000,,2016-12-02 17:33:00,
2016-12-02 12:44:00,37.0,31.0,30.18,SSW,211,4.0,7.0,80,-99.99,,,-99.99,84.000000,,2016-12-02 17:44:00,
2016-12-02 12:55:00,37.0,31.0,30.17,WNW,283,2.0,5.0,80,-99.99,,,-99.99,113.000000,,2016-12-02 17:55:00,
2016-12-02 13:06:00,38.0,32.0,30.17,South,186,3.0,7.0,80,-99.99,,,-99.99,83.000000,,2016-12-02 18:06:00,
2016-12-02 13:18:00,38.0,32.0,30.17,SSW,204,3.0,5.0,79,-99.99,,,-99.99,104.000000,,2016-12-02 18:18:00,
2016-12-02 13:25:00,38.0,32.0,30.17,WSW,246,2.0,5.0,79,-99.99,,,-99.99,146.000000,,2016-12-02 18:25:00,
2016-12-02 13:38:00,38.0,32.0,30.17,WNW,302,3.0,8.0,78,-99.99,,,-99.99,128.000000,,2016-12-02 18:38:00,
2016-12-02 13:47:00,39.0,32.0,30.16,WSW,238,3.0,8.0,77,-99.99,,,-99.99,123.000000,,2016-12-02 18:47:00,
2016-12-02 13:58:00,39.0,32.0,30.16,SW,221,2.0,5.0,76,-99.99,,,-99.99,139.000000,,2016-12-02 18:58:00,
2016-12-02 14:06:00,39.0,32.0,30.17,West,277,4.0,6.0,75,-99.99,,,-99.99,120.000000,,2016-12-02 19:06:00,
2016-12-02 14:16:00,39.0,32.0,30.16,SW,232,3.0,7.0,76,-99.99,,,-99.99,105.000000,,2016-12-02 19:16:00,
2016-12-02 14:25:00,39.0,32.0,30.16,South,191,2.0,7.0,76,-99.99,,,-99.99,76.000000,,2016-12-02 19:25:00,
2016-12-02 14:39:00,39.0,32.0,30.17,WSW,256,3.0,8.0,75,-99.99,,,-99.99,77.000000,,2016-12-02 19:39:00,
2016-12-02 14:47:00,39.0,31.0,30.16,WSW,247,3.0,8.0,74,-99.99,,,-99.99,77.000000,,2016-12-02 19:47:00,
2016-12-02 14:55:00,39.0,32.0,30.16,South,190,2.0,6.0,75,-99.99,,,-99.99,97.000000,,2016-12-02 19:55:00,
2016-12-02 15:07:00,39.0,32.0,30.17,South,184,2.0,8.0,75,-99.99,,,-99.99,113.000000,,2016-12-02 20:07:00,
2016-12-02 15:16:00,40.0,32.0,30.18,SSW,192,3.0,6.0,73,-99.99,,,-99.99,93.000000,,2016-12-02 20:16:00,
2016-12-02 15:25:00,40.0,32.0,30.19,WSW,241,2.0,9.0,73,-99.99,,,-99.99,51.000000,,2016-12-02 20:25:00,
2016-12-02 15:37:00,40.0,32.0,30.19,NW,308,3.0,7.0,73,-99.99,,,-99.99,42.000000,,2016-12-02 20:37:00,
2016-12-02 15:47:00,40.0,32.0,30.19,West,272,2.0,7.0,73,-99.99,,,-99.99,33.000000,,2016-12-02 20:47:00,
2016-12-02 15:57:00,39.0,31.0,30.20,SSW,209,2.0,6.0,73,-99.99,,,-99.99,32.000000,,2016-12-02 20:57:00,
2016-12-02 16:06:00,40.0,32.0,30.21,SW,234,3.0,5.0,73,-99.99,,,-99.99,23.000000,,2016-12-02 21:06:00,
2016-12-02 16:16:00,39.0,31.0,30.21,SW,228,2.0,9.0,73,-99.99,,,-99.99,18.000000,,2016-12-02 21:16:00,
2016-12-02 16:23:00,40.0,32.0,30.21,West,278,2.0,4.0,73,-99.99,,,-99.99,16.000000,,2016-12-02 21:23:00,
2016-12-02 16:34:00,40.0,32.0,30.21,SSW,205,1.0,7.0,74,-99.99,,,-99.99,16.000000,,2016-12-02 21:34:00,
2016-12-02 16:44:00,39.0,31.0,30.20,South,187,2.0,8.0,74,-99.99,,,-99.99,12.000000,,2016-12-02 21:44:00,
2016-12-02 16:53:00,39.0,31.0,30.20,West,265,2.0,6.0,73,-99.99,,,-99.99,9.000000,,2016-12-02 21:53:00,
2016-12-02 17:04:00,39.0,31.0,30.20,WNW,287,2.0,6.0,73,-99.99,,,-99.99,5.000000,,2016-12-02 22:04:00,
2016-12-02 17:13:00,39.0,31.0,30.21,West,269,2.0,6.0,74,-99.99,,,-99.99,0.000000,,2016-12-02 22:13:00,
2016-12-02 17:23:00,39.0,31.0,30.21,WNW,290,3.0,9.0,73,-99.99,,,-99.99,0.000000,,2016-12-02 22:23:00,
2016-12-02 17:34:00,39.0,31.0,30.21,WNW,284,2.0,5.0,73,-99.99,,,-99.99,0.000000,,2016-12-02 22:34:00,
2016-12-02 17:44:00,39.0,31.0,30.21,West,277,2.0,7.0,73,-99.99,,,-99.99,0.000000,,2016-12-02 22:44:00,
2016-12-02 18:04:00,39.0,31.0,30.22,WNW,298,1.0,6.0,74,-99.99,,,-99.99,0.000000,,2016-12-02 23:04:00,
2016-12-02 18:13:00,39.0,31.0,30.22,West,265,2.0,-999.0,74,-99.99,,,-99.99,0.000000,,2016-12-02 23:13:00,
2016-12-02 18:23:00,39.0,31.0,30.22,West,277,2.0,3.0,74,-99.99,,,-99.99,0.000000,,2016-12-02 23:23:00,
2016-12-02 18:33:00,39.0,31.0,30.23,West,262,2.0,5.0,74,-99.99,,,-99.99,0.000000,,2016-12-02 23:33:00,
2016-12-02 18:44:00,39.0,31.0,30.23,West,259,0.0,3.0,74,-99.99,,,-99.99,0.000000,,2016-12-02 23:44:00,
2016-12-02 18:55:00,39.0,31.0,30.23,West,279,2.0,5.0,74,-99.99,,,-99.99,0.000000,,2016-12-02 23:55:00,
2016-12-02 19:06:00,39.0,31.0,30.24,West,275,1.0,4.0,74,-99.99,,,-99.99,0.000000,,2016-12-03 00:06:00,
2016-12-02 19:14:00,39.0,31.0,30.24,WNW,302,1.0,5.0,74,-99.99,,,-99.99,0.000000,,2016-12-03 00:14:00,
2016-12-02 19:27:00,39.0,31.0,30.24,West,263,2.0,5.0,74,-99.99,,,-99.99,0.000000,,2016-12-03 00:27:00,
2016-12-02 19:37:00,39.0,31.0,30.24,West,275,3.0,7.0,74,-99.99,,,-99.99,0.000000,,2016-12-03 00:37:00,
2016-12-02 19:46:00,39.0,31.0,30.25,WSW,246,3.0,10.0,74,-99.99,,,-99.99,0.000000,,2016-12-03 00:46:00,
2016-12-02 19:54:00,39.0,31.0,30.25,West,277,2.0,5.0,74,-99.99,,,-99.99,0.000000,,2016-12-03 00:54:00,
2016-12-02 20:06:00,39.0,31.0,30.25,West,271,2.0,4.0,74,-99.99,,,-99.99,0.000000,,2016-12-03 01:06:00,
2016-12-02 20:15:00,39.0,31.0,30.26,WNW,293,2.0,5.0,74,-99.99,,,-99.99,0.000000,,2016-12-03 01:15:00,
2016-12-02 20:25:00,39.0,31.0,30.26,WSW,258,2.0,5.0,74,-99.99,,,-99.99,0.000000,,2016-12-03 01:25:00,
2016-12-02 20:37:00,39.0,31.0,30.26,WNW,303,3.0,6.0,74,-99.99,,,-99.99,0.000000,,2016-12-03 01:37:00,
2016-12-02 20:45:00,39.0,31.0,30.26,NW,304,2.0,6.0,74,-99.99,,,-99.99,0.000000,,2016-12-03 01:45:00,
2016-12-02 20:55:00,39.0,32.0,30.26,West,268,2.0,3.0,75,-99.99,,,-99.99,0.000000,,2016-12-03 01:55:00,
2016-12-02 21:05:00,39.0,32.0,30.26,West,281,3.0,8.0,75,-99.99,,,-99.99,0.000000,,2016-12-03 02:05:00,
2016-12-02 21:16:00,39.0,32.0,30.26,WNW,293,2.0,4.0,75,-99.99,,,-99.99,0.000000,,2016-12-03 02:16:00,
2016-12-02 21:25:00,39.0,32.0,30.26,WNW,288,2.0,4.0,75,-99.99,,,-99.99,0.000000,,2016-12-03 02:25:00,
2016-12-02 21:36:00,39.0,32.0,30.27,NW,317,1.0,3.0,75,-99.99,,,-99.99,0.000000,,2016-12-03 02:36:00,